sensor_id;sensor_type;location;lat;lon;timestamp;P1;durP1;ratioP1;P2;durP2;ratioP2
12776;SDS011;6452;41.572;23.732;2023-07-29T00:00:01;2.53;;;2.42;;
12776;SDS011;6452;41.572;23.732;2023-07-29T00:02:27;2.17;;;2.08;;
12776;SDS011;6452;41.572;23.732;2023-07-29T00:04:56;2.38;;;2.28;;
12776;SDS011;6452;41.572;23.732;2023-07-29T00:07:22;2.78;;;2.58;;
12776;SDS011;6452;41.572;23.732;2023-07-29T00:09:48;2.63;;;2.45;;
12776;SDS011;6452;41.572;23.732;2023-07-29T00:12:14;2.60;;;2.40;;
12776;SDS011;6452;41.572;23.732;2023-07-29T00:14:40;2.53;;;2.42;;
12776;SDS011;6452;41.572;23.732;2023-07-29T00:17:06;3.63;;;2.85;;
12776;SDS011;6452;41.572;23.732;2023-07-29T00:19:32;3.13;;;2.92;;
12776;SDS011;6452;41.572;23.732;2023-07-29T00:21:59;2.53;;;2.40;;
12776;SDS011;6452;41.572;23.732;2023-07-29T00:24:25;3.05;;;2.85;;
12776;SDS011;6452;41.572;23.732;2023-07-29T00:26:51;3.65;;;3.25;;
12776;SDS011;6452;41.572;23.732;2023-07-29T00:29:17;3.38;;;3.17;;
12776;SDS011;6452;41.572;23.732;2023-07-29T00:31:43;3.15;;;2.95;;
12776;SDS011;6452;41.572;23.732;2023-07-29T00:34:09;3.40;;;3.20;;
12776;SDS011;6452;41.572;23.732;2023-07-29T00:36:35;3.08;;;2.88;;
12776;SDS011;6452;41.572;23.732;2023-07-29T00:39:02;3.05;;;2.83;;
12776;SDS011;6452;41.572;23.732;2023-07-29T00:41:28;2.88;;;2.70;;
12776;SDS011;6452;41.572;23.732;2023-07-29T00:43:54;2.90;;;2.80;;
12776;SDS011;6452;41.572;23.732;2023-07-29T00:46:20;2.80;;;2.60;;
12776;SDS011;6452;41.572;23.732;2023-07-29T00:48:47;2.92;;;2.72;;
12776;SDS011;6452;41.572;23.732;2023-07-29T00:51:14;3.00;;;2.80;;
12776;SDS011;6452;41.572;23.732;2023-07-29T00:53:40;3.92;;;2.83;;
12776;SDS011;6452;41.572;23.732;2023-07-29T00:56:06;2.70;;;2.50;;
12776;SDS011;6452;41.572;23.732;2023-07-29T00:58:32;2.88;;;2.67;;
12776;SDS011;6452;41.572;23.732;2023-07-29T01:00:58;2.75;;;2.63;;
12776;SDS011;6452;41.572;23.732;2023-07-29T01:03:24;2.50;;;2.30;;
12776;SDS011;6452;41.572;23.732;2023-07-29T01:08:51;2.20;;;2.10;;
12776;SDS011;6452;41.572;23.732;2023-07-29T01:13:56;2.38;;;2.15;;
12776;SDS011;6452;41.572;23.732;2023-07-29T01:16:25;2.28;;;2.17;;
12776;SDS011;6452;41.572;23.732;2023-07-29T01:18:55;2.30;;;2.17;;
12776;SDS011;6452;41.572;23.732;2023-07-29T01:21:21;2.30;;;2.20;;
12776;SDS011;6452;41.572;23.732;2023-07-29T01:23:52;2.08;;;1.98;;
12776;SDS011;6452;41.572;23.732;2023-07-29T01:26:17;2.58;;;2.42;;
12776;SDS011;6452;41.572;23.732;2023-07-29T01:28:43;2.30;;;2.20;;
12776;SDS011;6452;41.572;23.732;2023-07-29T01:31:10;2.85;;;2.67;;
12776;SDS011;6452;41.572;23.732;2023-07-29T01:33:39;2.67;;;2.53;;
12776;SDS011;6452;41.572;23.732;2023-07-29T01:36:13;2.40;;;2.30;;
12776;SDS011;6452;41.572;23.732;2023-07-29T01:38:41;1.80;;;1.80;;
12776;SDS011;6452;41.572;23.732;2023-07-29T01:41:08;2.80;;;2.63;;
12776;SDS011;6452;41.572;23.732;2023-07-29T01:43:34;2.33;;;2.22;;
12776;SDS011;6452;41.572;23.732;2023-07-29T01:46:07;2.85;;;2.65;;
12776;SDS011;6452;41.572;23.732;2023-07-29T01:48:33;2.33;;;2.22;;
12776;SDS011;6452;41.572;23.732;2023-07-29T01:50:59;2.58;;;2.47;;
12776;SDS011;6452;41.572;23.732;2023-07-29T01:53:25;2.15;;;2.05;;
12776;SDS011;6452;41.572;23.732;2023-07-29T01:55:52;2.47;;;2.35;;
12776;SDS011;6452;41.572;23.732;2023-07-29T01:58:18;2.40;;;2.30;;
12776;SDS011;6452;41.572;23.732;2023-07-29T02:00:44;2.70;;;2.50;;
12776;SDS011;6452;41.572;23.732;2023-07-29T02:03:10;2.42;;;2.33;;
12776;SDS011;6452;41.572;23.732;2023-07-29T02:05:36;3.00;;;2.58;;
12776;SDS011;6452;41.572;23.732;2023-07-29T02:08:03;2.28;;;2.17;;
12776;SDS011;6452;41.572;23.732;2023-07-29T02:10:29;2.38;;;2.28;;
12776;SDS011;6452;41.572;23.732;2023-07-29T02:12:55;2.75;;;2.55;;
12776;SDS011;6452;41.572;23.732;2023-07-29T02:15:21;2.47;;;2.38;;
12776;SDS011;6452;41.572;23.732;2023-07-29T02:17:49;2.47;;;2.28;;
12776;SDS011;6452;41.572;23.732;2023-07-29T02:20:15;2.50;;;2.30;;
12776;SDS011;6452;41.572;23.732;2023-07-29T02:22:41;2.45;;;2.35;;
12776;SDS011;6452;41.572;23.732;2023-07-29T02:25:07;2.47;;;2.38;;
12776;SDS011;6452;41.572;23.732;2023-07-29T02:27:35;2.45;;;2.35;;
12776;SDS011;6452;41.572;23.732;2023-07-29T02:30:01;2.53;;;2.33;;
12776;SDS011;6452;41.572;23.732;2023-07-29T02:32:27;2.60;;;2.40;;
12776;SDS011;6452;41.572;23.732;2023-07-29T02:34:53;3.60;;;2.28;;
12776;SDS011;6452;41.572;23.732;2023-07-29T02:37:19;2.28;;;2.17;;
12776;SDS011;6452;41.572;23.732;2023-07-29T02:39:45;2.50;;;2.30;;
12776;SDS011;6452;41.572;23.732;2023-07-29T02:42:12;3.05;;;2.85;;
12776;SDS011;6452;41.572;23.732;2023-07-29T02:44:38;3.20;;;2.90;;
12776;SDS011;6452;41.572;23.732;2023-07-29T02:47:04;2.38;;;2.22;;
12776;SDS011;6452;41.572;23.732;2023-07-29T02:49:30;2.47;;;2.38;;
12776;SDS011;6452;41.572;23.732;2023-07-29T02:51:56;2.20;;;2.08;;
12776;SDS011;6452;41.572;23.732;2023-07-29T02:54:22;2.47;;;2.28;;
12776;SDS011;6452;41.572;23.732;2023-07-29T02:56:49;2.15;;;2.05;;
12776;SDS011;6452;41.572;23.732;2023-07-29T02:59:16;2.65;;;2.45;;
12776;SDS011;6452;41.572;23.732;2023-07-29T03:01:42;2.47;;;2.33;;
12776;SDS011;6452;41.572;23.732;2023-07-29T03:04:08;3.80;;;2.35;;
12776;SDS011;6452;41.572;23.732;2023-07-29T03:06:34;2.30;;;2.20;;
12776;SDS011;6452;41.572;23.732;2023-07-29T03:08:59;2.22;;;2.13;;
12776;SDS011;6452;41.572;23.732;2023-07-29T03:11:26;2.60;;;2.40;;
12776;SDS011;6452;41.572;23.732;2023-07-29T03:13:52;2.10;;;2.05;;
12776;SDS011;6452;41.572;23.732;2023-07-29T03:16:18;2.60;;;2.33;;
12776;SDS011;6452;41.572;23.732;2023-07-29T03:18:44;2.60;;;2.50;;
12776;SDS011;6452;41.572;23.732;2023-07-29T03:21:10;3.25;;;3.05;;
12776;SDS011;6452;41.572;23.732;2023-07-29T03:23:36;3.47;;;3.28;;
12776;SDS011;6452;41.572;23.732;2023-07-29T03:26:02;3.42;;;3.17;;
12776;SDS011;6452;41.572;23.732;2023-07-29T03:28:35;5.00;;;3.70;;
12776;SDS011;6452;41.572;23.732;2023-07-29T03:31:01;3.63;;;3.40;;
12776;SDS011;6452;41.572;23.732;2023-07-29T03:33:28;3.80;;;3.33;;
12776;SDS011;6452;41.572;23.732;2023-07-29T03:35:54;4.28;;;3.80;;
12776;SDS011;6452;41.572;23.732;2023-07-29T03:38:20;3.50;;;3.20;;
12776;SDS011;6452;41.572;23.732;2023-07-29T03:40:46;4.07;;;3.10;;
12776;SDS011;6452;41.572;23.732;2023-07-29T03:43:12;3.45;;;3.15;;
12776;SDS011;6452;41.572;23.732;2023-07-29T03:45:39;3.58;;;3.35;;
12776;SDS011;6452;41.572;23.732;2023-07-29T03:48:06;4.13;;;3.33;;
12776;SDS011;6452;41.572;23.732;2023-07-29T03:50:32;3.58;;;3.38;;
12776;SDS011;6452;41.572;23.732;2023-07-29T03:52:58;3.60;;;3.30;;
12776;SDS011;6452;41.572;23.732;2023-07-29T03:55:25;3.05;;;2.85;;
12776;SDS011;6452;41.572;23.732;2023-07-29T03:57:51;3.25;;;3.05;;
12776;SDS011;6452;41.572;23.732;2023-07-29T04:00:17;3.65;;;3.45;;
12776;SDS011;6452;41.572;23.732;2023-07-29T04:02:44;3.30;;;3.10;;
12776;SDS011;6452;41.572;23.732;2023-07-29T04:05:11;3.20;;;3.00;;
12776;SDS011;6452;41.572;23.732;2023-07-29T04:07:37;3.60;;;3.30;;
12776;SDS011;6452;41.572;23.732;2023-07-29T04:10:03;3.53;;;3.33;;
12776;SDS011;6452;41.572;23.732;2023-07-29T04:12:29;3.28;;;3.08;;
12776;SDS011;6452;41.572;23.732;2023-07-29T04:14:55;3.53;;;3.05;;
12776;SDS011;6452;41.572;23.732;2023-07-29T04:17:22;3.38;;;3.17;;
12776;SDS011;6452;41.572;23.732;2023-07-29T04:19:47;6.80;;;3.58;;
12776;SDS011;6452;41.572;23.732;2023-07-29T04:22:14;5.65;;;3.17;;
12776;SDS011;6452;41.572;23.732;2023-07-29T04:24:40;3.97;;;3.67;;
12776;SDS011;6452;41.572;23.732;2023-07-29T04:27:06;3.30;;;3.10;;
12776;SDS011;6452;41.572;23.732;2023-07-29T04:29:32;3.13;;;2.92;;
12776;SDS011;6452;41.572;23.732;2023-07-29T04:31:58;2.90;;;2.80;;
12776;SDS011;6452;41.572;23.732;2023-07-29T04:34:24;8.93;;;3.38;;
12776;SDS011;6452;41.572;23.732;2023-07-29T04:36:50;3.60;;;3.35;;
12776;SDS011;6452;41.572;23.732;2023-07-29T04:39:16;3.53;;;3.22;;
12776;SDS011;6452;41.572;23.732;2023-07-29T04:41:43;3.80;;;3.50;;
12776;SDS011;6452;41.572;23.732;2023-07-29T04:44:09;3.58;;;3.30;;
12776;SDS011;6452;41.572;23.732;2023-07-29T04:46:35;4.03;;;3.55;;
12776;SDS011;6452;41.572;23.732;2023-07-29T04:49:01;3.30;;;3.10;;
12776;SDS011;6452;41.572;23.732;2023-07-29T04:51:28;3.75;;;3.55;;
12776;SDS011;6452;41.572;23.732;2023-07-29T04:53:54;4.05;;;3.40;;
12776;SDS011;6452;41.572;23.732;2023-07-29T04:56:19;3.42;;;3.13;;
12776;SDS011;6452;41.572;23.732;2023-07-29T04:58:45;3.58;;;3.38;;
12776;SDS011;6452;41.572;23.732;2023-07-29T05:01:11;3.53;;;3.20;;
12776;SDS011;6452;41.572;23.732;2023-07-29T05:03:37;3.38;;;3.17;;
12776;SDS011;6452;41.572;23.732;2023-07-29T05:06:05;3.15;;;2.95;;
12776;SDS011;6452;41.572;23.732;2023-07-29T05:08:31;3.38;;;3.05;;
12776;SDS011;6452;41.572;23.732;2023-07-29T05:10:57;3.60;;;3.30;;
12776;SDS011;6452;41.572;23.732;2023-07-29T05:13:23;3.70;;;3.40;;
12776;SDS011;6452;41.572;23.732;2023-07-29T05:15:49;4.72;;;3.20;;
12776;SDS011;6452;41.572;23.732;2023-07-29T05:18:16;3.63;;;3.33;;
12776;SDS011;6452;41.572;23.732;2023-07-29T05:20:42;4.90;;;4.05;;
12776;SDS011;6452;41.572;23.732;2023-07-29T05:23:08;4.30;;;4.00;;
12776;SDS011;6452;41.572;23.732;2023-07-29T05:25:34;4.22;;;3.97;;
12776;SDS011;6452;41.572;23.732;2023-07-29T05:28:00;4.55;;;4.22;;
12776;SDS011;6452;41.572;23.732;2023-07-29T05:30:26;3.90;;;3.67;;
12776;SDS011;6452;41.572;23.732;2023-07-29T05:32:59;3.80;;;3.50;;
12776;SDS011;6452;41.572;23.732;2023-07-29T05:35:25;4.00;;;3.60;;
12776;SDS011;6452;41.572;23.732;2023-07-29T05:37:51;4.05;;;3.75;;
12776;SDS011;6452;41.572;23.732;2023-07-29T05:40:17;3.20;;;3.10;;
12776;SDS011;6452;41.572;23.732;2023-07-29T05:42:44;4.20;;;3.80;;
12776;SDS011;6452;41.572;23.732;2023-07-29T05:45:11;3.45;;;3.17;;
12776;SDS011;6452;41.572;23.732;2023-07-29T05:47:37;3.60;;;3.30;;
12776;SDS011;6452;41.572;23.732;2023-07-29T05:50:03;3.50;;;3.28;;
12776;SDS011;6452;41.572;23.732;2023-07-29T05:52:30;3.38;;;3.17;;
12776;SDS011;6452;41.572;23.732;2023-07-29T05:54:56;3.25;;;3.05;;
12776;SDS011;6452;41.572;23.732;2023-07-29T05:57:22;3.38;;;3.17;;
12776;SDS011;6452;41.572;23.732;2023-07-29T05:59:47;3.22;;;3.03;;
12776;SDS011;6452;41.572;23.732;2023-07-29T06:02:14;2.85;;;2.65;;
12776;SDS011;6452;41.572;23.732;2023-07-29T06:04:40;3.05;;;2.85;;
12776;SDS011;6452;41.572;23.732;2023-07-29T06:07:06;2.90;;;2.80;;
12776;SDS011;6452;41.572;23.732;2023-07-29T06:09:32;4.32;;;2.67;;
12776;SDS011;6452;41.572;23.732;2023-07-29T06:11:58;2.85;;;2.65;;
12776;SDS011;6452;41.572;23.732;2023-07-29T06:14:24;2.40;;;2.33;;
12776;SDS011;6452;41.572;23.732;2023-07-29T06:16:50;2.95;;;2.75;;
12776;SDS011;6452;41.572;23.732;2023-07-29T06:19:16;3.33;;;2.95;;
12776;SDS011;6452;41.572;23.732;2023-07-29T06:21:42;2.53;;;2.42;;
12776;SDS011;6452;41.572;23.732;2023-07-29T06:24:08;2.72;;;2.53;;
12776;SDS011;6452;41.572;23.732;2023-07-29T06:26:34;3.22;;;3.03;;
12776;SDS011;6452;41.572;23.732;2023-07-29T06:29:00;2.95;;;2.75;;
12776;SDS011;6452;41.572;23.732;2023-07-29T06:31:26;2.75;;;2.65;;
12776;SDS011;6452;41.572;23.732;2023-07-29T06:33:52;3.00;;;2.80;;
12776;SDS011;6452;41.572;23.732;2023-07-29T06:36:18;3.00;;;2.90;;
12776;SDS011;6452;41.572;23.732;2023-07-29T06:38:44;3.67;;;2.92;;
12776;SDS011;6452;41.572;23.732;2023-07-29T06:41:10;3.33;;;3.13;;
12776;SDS011;6452;41.572;23.732;2023-07-29T06:43:36;3.30;;;3.10;;
12776;SDS011;6452;41.572;23.732;2023-07-29T06:46:02;3.05;;;2.85;;
12776;SDS011;6452;41.572;23.732;2023-07-29T06:48:28;4.05;;;2.90;;
12776;SDS011;6452;41.572;23.732;2023-07-29T06:50:54;3.00;;;2.90;;
12776;SDS011;6452;41.572;23.732;2023-07-29T06:53:26;3.38;;;3.17;;
12776;SDS011;6452;41.572;23.732;2023-07-29T06:55:52;3.13;;;2.95;;
12776;SDS011;6452;41.572;23.732;2023-07-29T06:58:18;3.03;;;2.75;;
12776;SDS011;6452;41.572;23.732;2023-07-29T07:00:44;3.92;;;2.80;;
12776;SDS011;6452;41.572;23.732;2023-07-29T07:03:11;2.72;;;2.55;;
12776;SDS011;6452;41.572;23.732;2023-07-29T07:05:36;3.20;;;3.00;;
12776;SDS011;6452;41.572;23.732;2023-07-29T07:08:02;5.80;;;3.22;;
12776;SDS011;6452;41.572;23.732;2023-07-29T07:10:29;3.15;;;2.95;;
12776;SDS011;6452;41.572;23.732;2023-07-29T07:12:55;3.35;;;3.15;;
12776;SDS011;6452;41.572;23.732;2023-07-29T07:15:21;2.78;;;2.67;;
12776;SDS011;6452;41.572;23.732;2023-07-29T07:17:47;2.58;;;2.47;;
12776;SDS011;6452;41.572;23.732;2023-07-29T07:20:13;3.28;;;3.00;;
12776;SDS011;6452;41.572;23.732;2023-07-29T07:22:39;2.40;;;2.30;;
12776;SDS011;6452;41.572;23.732;2023-07-29T07:25:06;2.88;;;2.67;;
12776;SDS011;6452;41.572;23.732;2023-07-29T07:27:32;2.83;;;2.67;;
12776;SDS011;6452;41.572;23.732;2023-07-29T07:29:58;2.78;;;2.58;;
12776;SDS011;6452;41.572;23.732;2023-07-29T07:32:24;2.72;;;2.63;;
12776;SDS011;6452;41.572;23.732;2023-07-29T07:34:50;4.40;;;2.80;;
12776;SDS011;6452;41.572;23.732;2023-07-29T07:37:16;2.80;;;2.70;;
12776;SDS011;6452;41.572;23.732;2023-07-29T07:39:43;2.63;;;2.53;;
12776;SDS011;6452;41.572;23.732;2023-07-29T07:42:09;2.92;;;2.72;;
12776;SDS011;6452;41.572;23.732;2023-07-29T07:44:35;2.70;;;2.50;;
12776;SDS011;6452;41.572;23.732;2023-07-29T07:47:01;2.90;;;2.70;;
12776;SDS011;6452;41.572;23.732;2023-07-29T07:49:27;4.15;;;2.92;;
12776;SDS011;6452;41.572;23.732;2023-07-29T07:51:53;5.78;;;2.85;;
12776;SDS011;6452;41.572;23.732;2023-07-29T07:54:19;3.10;;;2.67;;
12776;SDS011;6452;41.572;23.732;2023-07-29T07:56:45;2.97;;;2.78;;
12776;SDS011;6452;41.572;23.732;2023-07-29T07:59:12;2.35;;;2.25;;
12776;SDS011;6452;41.572;23.732;2023-07-29T08:01:38;2.53;;;2.42;;
12776;SDS011;6452;41.572;23.732;2023-07-29T08:04:04;4.15;;;2.70;;
12776;SDS011;6452;41.572;23.732;2023-07-29T08:06:31;2.25;;;2.15;;
12776;SDS011;6452;41.572;23.732;2023-07-29T08:08:57;2.63;;;2.42;;
12776;SDS011;6452;41.572;23.732;2023-07-29T08:11:23;2.80;;;2.60;;
12776;SDS011;6452;41.572;23.732;2023-07-29T08:13:49;2.53;;;2.38;;
12776;SDS011;6452;41.572;23.732;2023-07-29T08:16:15;3.35;;;2.40;;
12776;SDS011;6452;41.572;23.732;2023-07-29T08:18:41;2.40;;;2.30;;
12776;SDS011;6452;41.572;23.732;2023-07-29T08:21:07;2.50;;;2.30;;
12776;SDS011;6452;41.572;23.732;2023-07-29T08:23:33;2.63;;;2.42;;
12776;SDS011;6452;41.572;23.732;2023-07-29T08:26:01;2.30;;;2.10;;
12776;SDS011;6452;41.572;23.732;2023-07-29T08:28:28;2.50;;;2.30;;
12776;SDS011;6452;41.572;23.732;2023-07-29T08:30:54;2.35;;;2.25;;
12776;SDS011;6452;41.572;23.732;2023-07-29T08:33:19;2.45;;;2.35;;
12776;SDS011;6452;41.572;23.732;2023-07-29T08:35:45;2.20;;;2.10;;
12776;SDS011;6452;41.572;23.732;2023-07-29T08:38:11;3.03;;;2.17;;
12776;SDS011;6452;41.572;23.732;2023-07-29T08:40:37;2.42;;;2.33;;
12776;SDS011;6452;41.572;23.732;2023-07-29T08:43:07;2.38;;;2.28;;
12776;SDS011;6452;41.572;23.732;2023-07-29T08:45:36;2.28;;;2.17;;
12776;SDS011;6452;41.572;23.732;2023-07-29T08:48:04;2.80;;;2.20;;
12776;SDS011;6452;41.572;23.732;2023-07-29T08:50:32;2.08;;;2.00;;
12776;SDS011;6452;41.572;23.732;2023-07-29T08:52:59;2.58;;;2.38;;
12776;SDS011;6452;41.572;23.732;2023-07-29T08:55:24;2.40;;;2.20;;
12776;SDS011;6452;41.572;23.732;2023-07-29T08:57:51;2.00;;;1.90;;
12776;SDS011;6452;41.572;23.732;2023-07-29T09:00:16;2.20;;;2.10;;
12776;SDS011;6452;41.572;23.732;2023-07-29T09:02:43;1.70;;;1.70;;
12776;SDS011;6452;41.572;23.732;2023-07-29T09:05:09;1.90;;;1.90;;
12776;SDS011;6452;41.572;23.732;2023-07-29T09:07:35;2.67;;;2.28;;
12776;SDS011;6452;41.572;23.732;2023-07-29T09:10:02;2.20;;;2.03;;
12776;SDS011;6452;41.572;23.732;2023-07-29T09:12:28;4.25;;;2.00;;
12776;SDS011;6452;41.572;23.732;2023-07-29T09:14:54;1.70;;;1.70;;
12776;SDS011;6452;41.572;23.732;2023-07-29T09:17:20;1.80;;;1.70;;
12776;SDS011;6452;41.572;23.732;2023-07-29T09:19:50;1.83;;;1.80;;
12776;SDS011;6452;41.572;23.732;2023-07-29T09:22:17;2.03;;;1.92;;
12776;SDS011;6452;41.572;23.732;2023-07-29T09:24:45;1.80;;;1.80;;
12776;SDS011;6452;41.572;23.732;2023-07-29T09:27:23;1.65;;;1.65;;
12776;SDS011;6452;41.572;23.732;2023-07-29T09:29:48;1.75;;;1.65;;
12776;SDS011;6452;41.572;23.732;2023-07-29T09:32:21;1.45;;;1.38;;
12776;SDS011;6452;41.572;23.732;2023-07-29T09:34:47;1.75;;;1.75;;
12776;SDS011;6452;41.572;23.732;2023-07-29T09:37:31;1.90;;;1.80;;
12776;SDS011;6452;41.572;23.732;2023-07-29T09:40:02;2.03;;;1.80;;
12776;SDS011;6452;41.572;23.732;2023-07-29T09:42:28;1.42;;;1.42;;
12776;SDS011;6452;41.572;23.732;2023-07-29T09:44:54;1.45;;;1.45;;
12776;SDS011;6452;41.572;23.732;2023-07-29T09:47:24;1.33;;;1.33;;
12776;SDS011;6452;41.572;23.732;2023-07-29T09:49:50;1.45;;;1.45;;
12776;SDS011;6452;41.572;23.732;2023-07-29T09:52:17;1.70;;;1.70;;
12776;SDS011;6452;41.572;23.732;2023-07-29T09:54:44;1.50;;;1.40;;
12776;SDS011;6452;41.572;23.732;2023-07-29T09:57:10;1.40;;;1.40;;
12776;SDS011;6452;41.572;23.732;2023-07-29T09:59:37;1.50;;;1.50;;
12776;SDS011;6452;41.572;23.732;2023-07-29T10:02:03;1.88;;;1.60;;
12776;SDS011;6452;41.572;23.732;2023-07-29T10:04:30;1.60;;;1.60;;
12776;SDS011;6452;41.572;23.732;2023-07-29T10:06:56;1.42;;;1.42;;
12776;SDS011;6452;41.572;23.732;2023-07-29T10:09:23;1.20;;;1.20;;
12776;SDS011;6452;41.572;23.732;2023-07-29T10:11:49;1.10;;;1.10;;
12776;SDS011;6452;41.572;23.732;2023-07-29T10:14:16;1.50;;;1.50;;
12776;SDS011;6452;41.572;23.732;2023-07-29T10:16:42;1.30;;;1.30;;
12776;SDS011;6452;41.572;23.732;2023-07-29T10:19:10;1.20;;;1.20;;
12776;SDS011;6452;41.572;23.732;2023-07-29T10:21:38;1.25;;;1.25;;
12776;SDS011;6452;41.572;23.732;2023-07-29T10:24:06;1.45;;;1.35;;
12776;SDS011;6452;41.572;23.732;2023-07-29T10:26:35;1.48;;;1.38;;
12776;SDS011;6452;41.572;23.732;2023-07-29T10:29:03;1.35;;;1.25;;
12776;SDS011;6452;41.572;23.732;2023-07-29T10:31:30;1.02;;;0.98;;
12776;SDS011;6452;41.572;23.732;2023-07-29T10:33:56;1.20;;;1.20;;
12776;SDS011;6452;41.572;23.732;2023-07-29T10:36:22;1.20;;;1.20;;
12776;SDS011;6452;41.572;23.732;2023-07-29T10:38:49;1.05;;;1.05;;
12776;SDS011;6452;41.572;23.732;2023-07-29T10:41:15;1.15;;;1.15;;
12776;SDS011;6452;41.572;23.732;2023-07-29T10:43:40;1.67;;;1.17;;
12776;SDS011;6452;41.572;23.732;2023-07-29T10:46:16;1.17;;;1.17;;
12776;SDS011;6452;41.572;23.732;2023-07-29T10:53:51;1.20;;;1.20;;
12776;SDS011;6452;41.572;23.732;2023-07-29T10:56:24;1.00;;;1.00;;
12776;SDS011;6452;41.572;23.732;2023-07-29T10:58:50;0.88;;;0.88;;
12776;SDS011;6452;41.572;23.732;2023-07-29T11:01:26;1.30;;;1.20;;
12776;SDS011;6452;41.572;23.732;2023-07-29T11:04:21;1.20;;;1.20;;
12776;SDS011;6452;41.572;23.732;2023-07-29T11:12:05;1.20;;;1.10;;
12776;SDS011;6452;41.572;23.732;2023-07-29T11:14:31;0.95;;;0.95;;
12776;SDS011;6452;41.572;23.732;2023-07-29T11:16:58;1.20;;;1.20;;
12776;SDS011;6452;41.572;23.732;2023-07-29T11:19:24;1.02;;;1.02;;
12776;SDS011;6452;41.572;23.732;2023-07-29T11:21:50;1.10;;;1.10;;
12776;SDS011;6452;41.572;23.732;2023-07-29T11:24:18;1.10;;;1.10;;
12776;SDS011;6452;41.572;23.732;2023-07-29T11:26:47;1.02;;;1.02;;
12776;SDS011;6452;41.572;23.732;2023-07-29T11:29:13;1.23;;;1.20;;
12776;SDS011;6452;41.572;23.732;2023-07-29T11:31:39;1.20;;;1.20;;
12776;SDS011;6452;41.572;23.732;2023-07-29T11:34:06;0.90;;;0.90;;
12776;SDS011;6452;41.572;23.732;2023-07-29T11:36:32;1.30;;;1.20;;
12776;SDS011;6452;41.572;23.732;2023-07-29T11:38:58;2.28;;;1.00;;
12776;SDS011;6452;41.572;23.732;2023-07-29T11:41:24;1.25;;;1.15;;
12776;SDS011;6452;41.572;23.732;2023-07-29T11:43:50;1.05;;;1.05;;
12776;SDS011;6452;41.572;23.732;2023-07-29T11:46:20;0.95;;;0.93;;
12776;SDS011;6452;41.572;23.732;2023-07-29T11:48:46;1.00;;;1.00;;
12776;SDS011;6452;41.572;23.732;2023-07-29T11:51:12;1.58;;;1.55;;
12776;SDS011;6452;41.572;23.732;2023-07-29T11:53:38;1.52;;;1.42;;
12776;SDS011;6452;41.572;23.732;2023-07-29T11:56:04;1.73;;;1.63;;
12776;SDS011;6452;41.572;23.732;2023-07-29T11:58:30;1.42;;;1.42;;
12776;SDS011;6452;41.572;23.732;2023-07-29T12:00:56;1.80;;;1.70;;
12776;SDS011;6452;41.572;23.732;2023-07-29T12:03:22;1.67;;;1.67;;
12776;SDS011;6452;41.572;23.732;2023-07-29T12:05:48;1.95;;;1.85;;
12776;SDS011;6452;41.572;23.732;2023-07-29T12:08:14;2.22;;;2.13;;
12776;SDS011;6452;41.572;23.732;2023-07-29T12:10:40;1.63;;;1.63;;
12776;SDS011;6452;41.572;23.732;2023-07-29T12:13:07;2.28;;;1.92;;
12776;SDS011;6452;41.572;23.732;2023-07-29T12:15:34;1.67;;;1.65;;
12776;SDS011;6452;41.572;23.732;2023-07-29T12:18:00;2.50;;;1.80;;
12776;SDS011;6452;41.572;23.732;2023-07-29T12:20:26;1.63;;;1.63;;
12776;SDS011;6452;41.572;23.732;2023-07-29T12:22:56;1.55;;;1.48;;
12776;SDS011;6452;41.572;23.732;2023-07-29T12:25:22;2.30;;;2.13;;
12776;SDS011;6452;41.572;23.732;2023-07-29T12:27:48;1.65;;;1.65;;
12776;SDS011;6452;41.572;23.732;2023-07-29T12:30:14;1.83;;;1.65;;
12776;SDS011;6452;41.572;23.732;2023-07-29T12:32:44;1.50;;;1.50;;
12776;SDS011;6452;41.572;23.732;2023-07-29T12:35:10;1.60;;;1.50;;
12776;SDS011;6452;41.572;23.732;2023-07-29T12:37:36;1.58;;;1.58;;
12776;SDS011;6452;41.572;23.732;2023-07-29T12:40:04;1.70;;;1.60;;
12776;SDS011;6452;41.572;23.732;2023-07-29T12:42:30;2.15;;;1.60;;
12776;SDS011;6452;41.572;23.732;2023-07-29T12:44:56;1.70;;;1.70;;
12776;SDS011;6452;41.572;23.732;2023-07-29T12:47:22;1.80;;;1.77;;
12776;SDS011;6452;41.572;23.732;2023-07-29T12:49:48;1.85;;;1.80;;
12776;SDS011;6452;41.572;23.732;2023-07-29T12:52:14;1.40;;;1.40;;
12776;SDS011;6452;41.572;23.732;2023-07-29T12:54:40;1.50;;;1.50;;
12776;SDS011;6452;41.572;23.732;2023-07-29T12:57:09;1.70;;;1.70;;
12776;SDS011;6452;41.572;23.732;2023-07-29T12:59:35;1.63;;;1.63;;
12776;SDS011;6452;41.572;23.732;2023-07-29T13:02:01;1.67;;;1.67;;
12776;SDS011;6452;41.572;23.732;2023-07-29T13:04:27;1.77;;;1.67;;
12776;SDS011;6452;41.572;23.732;2023-07-29T13:06:53;1.52;;;1.52;;
12776;SDS011;6452;41.572;23.732;2023-07-29T13:09:19;2.03;;;1.92;;
12776;SDS011;6452;41.572;23.732;2023-07-29T13:11:46;1.95;;;1.85;;
12776;SDS011;6452;41.572;23.732;2023-07-29T13:14:12;1.50;;;1.50;;
12776;SDS011;6452;41.572;23.732;2023-07-29T13:16:38;1.65;;;1.65;;
12776;SDS011;6452;41.572;23.732;2023-07-29T13:19:04;1.60;;;1.50;;
12776;SDS011;6452;41.572;23.732;2023-07-29T13:21:31;1.80;;;1.70;;
12776;SDS011;6452;41.572;23.732;2023-07-29T13:23:57;1.42;;;1.42;;
12776;SDS011;6452;41.572;23.732;2023-07-29T13:26:23;1.70;;;1.70;;
12776;SDS011;6452;41.572;23.732;2023-07-29T13:28:49;1.60;;;1.60;;
12776;SDS011;6452;41.572;23.732;2023-07-29T13:31:15;1.85;;;1.80;;
12776;SDS011;6452;41.572;23.732;2023-07-29T13:33:41;2.03;;;1.63;;
12776;SDS011;6452;41.572;23.732;2023-07-29T13:36:07;1.75;;;1.65;;
12776;SDS011;6452;41.572;23.732;2023-07-29T13:38:36;1.88;;;1.77;;
12776;SDS011;6452;41.572;23.732;2023-07-29T13:41:01;1.65;;;1.65;;
12776;SDS011;6452;41.572;23.732;2023-07-29T13:43:28;1.80;;;1.70;;
12776;SDS011;6452;41.572;23.732;2023-07-29T13:45:54;2.22;;;2.13;;
12776;SDS011;6452;41.572;23.732;2023-07-29T13:48:19;1.83;;;1.75;;
12776;SDS011;6452;41.572;23.732;2023-07-29T13:50:45;1.85;;;1.85;;
12776;SDS011;6452;41.572;23.732;2023-07-29T13:53:11;1.73;;;1.63;;
12776;SDS011;6452;41.572;23.732;2023-07-29T13:55:37;1.83;;;1.80;;
12776;SDS011;6452;41.572;23.732;2023-07-29T13:58:02;1.60;;;1.60;;
12776;SDS011;6452;41.572;23.732;2023-07-29T14:00:29;1.40;;;1.40;;
12776;SDS011;6452;41.572;23.732;2023-07-29T14:02:55;1.50;;;1.50;;
12776;SDS011;6452;41.572;23.732;2023-07-29T14:05:21;1.77;;;1.77;;
12776;SDS011;6452;41.572;23.732;2023-07-29T14:07:47;1.73;;;1.73;;
12776;SDS011;6452;41.572;23.732;2023-07-29T14:10:13;1.90;;;1.90;;
12776;SDS011;6452;41.572;23.732;2023-07-29T14:12:39;1.73;;;1.63;;
12776;SDS011;6452;41.572;23.732;2023-07-29T14:15:05;1.83;;;1.55;;
12776;SDS011;6452;41.572;23.732;2023-07-29T14:17:33;1.70;;;1.70;;
12776;SDS011;6452;41.572;23.732;2023-07-29T14:19:59;1.60;;;1.50;;
12776;SDS011;6452;41.572;23.732;2023-07-29T14:22:25;1.75;;;1.65;;
12776;SDS011;6452;41.572;23.732;2023-07-29T14:24:51;1.77;;;1.67;;
12776;SDS011;6452;41.572;23.732;2023-07-29T14:27:18;1.90;;;1.80;;
12776;SDS011;6452;41.572;23.732;2023-07-29T14:29:44;1.67;;;1.58;;
12776;SDS011;6452;41.572;23.732;2023-07-29T14:32:10;1.80;;;1.70;;
12776;SDS011;6452;41.572;23.732;2023-07-29T14:34:35;1.58;;;1.58;;
12776;SDS011;6452;41.572;23.732;2023-07-29T14:37:02;1.92;;;1.83;;
12776;SDS011;6452;41.572;23.732;2023-07-29T14:39:28;2.08;;;1.60;;
12776;SDS011;6452;41.572;23.732;2023-07-29T14:41:53;1.50;;;1.50;;
12776;SDS011;6452;41.572;23.732;2023-07-29T14:44:19;1.70;;;1.70;;
12776;SDS011;6452;41.572;23.732;2023-07-29T14:46:46;1.90;;;1.80;;
12776;SDS011;6452;41.572;23.732;2023-07-29T14:49:12;1.80;;;1.70;;
12776;SDS011;6452;41.572;23.732;2023-07-29T14:51:38;1.70;;;1.65;;
12776;SDS011;6452;41.572;23.732;2023-07-29T14:54:04;1.67;;;1.67;;
12776;SDS011;6452;41.572;23.732;2023-07-29T14:56:30;1.80;;;1.80;;
12776;SDS011;6452;41.572;23.732;2023-07-29T14:58:56;1.30;;;1.30;;